Ayden, NC

2:41 PM EDT on September 01, 2015 (GMT -0400)
Sunrise Park | | Change Station
CLOSE
Current Station
Personal Weather Station
Location: Ayden, NC
Elevation: 49 ft
Nearby Weather Stations

Elev 49 ft 35.47 °N, 77.41 °W | Updated 7 minutes ago

Partly Cloudy
Partly Cloudy
84.6 °F
Feels Like 89 °F
N
2.2
Wind Variable Wind from West

Today
High -- | Low -- °F
--% Chance of Precip.
Yesterday
High -- | Low -- °F
Precip. -- in
6:41 AM 7:37 PM
Waning Gibbous, 87% visible
Pressure 30.08 in
Visibility 10.0 miles
Clouds Scattered Clouds 3100 ft
Scattered Clouds 3800 ft
Heat Index 89 °F
Dew Point 70 °F
Humidity 61%
Rainfall 0.00 in
Snow Depth Not available.
UV 7 out of 12
Pollen 8.00 out of 12
Air Quality Not available.
Flu Activity Not available.
METAR KPGV 011835Z AUTO 02003KT 10SM SCT031 SCT038 28/22 A3008 RMK AO2
Pressure 30.08 in
Visibility 10.0 miles
Clouds Scattered Clouds 3100 ft
Scattered Clouds 3800 ft
Heat Index 89 °F
Dew Point 70 °F
Humidity 61%
Rainfall 0.00 in
Snow Depth Not available.
UV 7 out of 12
Pollen 8.00 out of 12
Air Quality Not available.
Flu Activity Not available.
METAR KPGV 011835Z AUTO 02003KT 10SM SCT031 SCT038 28/22 A3008 RMK AO2

10-Day Weather Forecast

×

Almanac

Astronomy

Sep. 01, 2015 Rise Set
Actual Time
Civil Twilight
Nautical Twilight
Astronomical Twilight
Moon
Length of Visible Light
Length of Day
Tomorrow will be .
, % of the Moon is Illuminated

Today's Extremes

State Highs State Lows

Community

WunderPhotos

Upload Photos

1,851,593 photos uploaded!

WunderBlogs® & News

Nearby

Air Quality

  Air Quality AQ Index Pollutant
Not available.

Snow Depth

Station Depth Elevation

Earthquake Activity

City Distance Mag. Time & Date
Minimum magnitude displayed is 2.5.

Coastal Water Temperatures

Place Temperature

Stations

Nearby Weather Stations

Station Location Temp. Windchill Dew Point Humidity Wind Precip. Elev Updated Type